Hillsboro, Tennessee
Current Conditions -  °F | °C
As of 12:35 PM on Thursday 27 Nov 2014 (Local Time) from KTHA Reporting Station
Overcast Overcast  
Wind Chill: 27°   Ceiling: 2600
Heat Index: 36°   Visibility: 10mi
Dew Point: 27°   Wind: 13mph
Humidity: 70%   Direction: 330°NNW
Pressure: 30.35"   Gusts: NA
Location:  35.41°N, 85.97°W
Report Text: KTHA 271835Z AUTO 33011KT 10SM BKN026 OVC034 02/M03 A3035 RMK
Loading
Personal Weather Stations






























Interactive Weather Map New forecast layout! Learn more

10-Day Weather Forecast

Advertisements
Track Severe Weather on mobile